Time;durP1;ratioP1;P1;durP2;ratioP2;P2;SDS_P1;SDS_P2;PMS_P1;PMS_P2;Temp;Humidity;BMP_temperature;BMP_pressure;BME280_temperature;BME280_humidity;BME280_pressure;Samples;Min_cycle;Max_cycle;Signal;HPM_P1;HPM_P2
2021/09/05 00:00:55;;;;;;;9.80;7.22;;;19.30;62.90;;;;;;20705894;28;20064;-54
2021/09/05 00:10:55;;;;;;;9.73;7.88;;;19.30;62.70;;;;;;20699048;28;20030;-52
2021/09/05 00:20:56;;;;;;;11.93;7.10;;;19.30;62.70;;;;;;20693372;28;20037;-53
2021/09/05 00:30:56;;;;;;;15.40;8.90;;;19.30;62.70;;;;;;20696843;28;20815;-54
2021/09/05 00:40:58;;;;;;;12.38;9.45;;;19.20;62.60;;;;;;20709859;28;20404;-52
2021/09/05 00:50:58;;;;;;;10.18;8.23;;;19.20;62.50;;;;;;20698310;28;20031;-57
2021/09/05 01:00:59;;;;;;;14.50;10.10;;;19.20;62.40;;;;;;20701426;28;20034;-55
2021/09/05 01:11:00;;;;;;;11.90;8.27;;;19.20;62.30;;;;;;20695765;28;20038;-55
2021/09/05 01:21:00;;;;;;;9.30;8.30;;;19.20;62.30;;;;;;20721722;28;20456;-50
2021/09/05 01:31:01;;;;;;;13.30;8.95;;;19.20;62.10;;;;;;20726516;28;20461;-48
2021/09/05 01:41:01;;;;;;;11.50;8.90;;;19.20;62.00;;;;;;20735296;28;20100;-54
2021/09/05 01:51:02;;;;;;;11.23;8.15;;;19.20;62.00;;;;;;20730087;28;20325;-55
2021/09/05 02:01:03;;;;;;;11.35;9.35;;;19.20;62.00;;;;;;20737982;28;20026;-52
2021/09/05 02:11:03;;;;;;;9.35;7.32;;;19.20;61.90;;;;;;20736808;28;20045;-48
2021/09/05 02:21:04;;;;;;;8.80;7.38;;;19.20;62.00;;;;;;20734366;28;20038;-49
2021/09/05 02:31:04;;;;;;;9.63;7.57;;;19.20;62.10;;;;;;20707303;28;20080;-50
2021/09/05 02:41:05;;;;;;;12.43;8.48;;;19.20;62.10;;;;;;20752272;28;20473;-52
2021/09/05 02:51:05;;;;;;;8.33;6.70;;;19.10;62.10;;;;;;20750475;28;20084;-51
2021/09/05 03:01:07;;;;;;;10.63;7.10;;;19.10;61.90;;;;;;20748234;28;20037;-49
2021/09/05 03:11:07;;;;;;;8.65;6.88;;;19.10;62.20;;;;;;20749002;28;20395;-51
2021/09/05 03:21:08;;;;;;;9.15;7.13;;;19.10;62.10;;;;;;20748498;28;20057;-50
2021/09/05 03:31:08;;;;;;;11.60;6.65;;;19.10;62.10;;;;;;20736331;28;20132;-51
2021/09/05 03:41:09;;;;;;;10.25;7.35;;;19.10;61.80;;;;;;20746124;28;20104;-55
2021/09/05 03:51:09;;;;;;;8.85;6.93;;;19.10;61.70;;;;;;20744772;28;20393;-49
2021/09/05 04:01:10;;;;;;;10.00;6.82;;;19.00;61.60;;;;;;20744894;28;20065;-50
2021/09/05 04:11:10;;;;;;;7.45;6.18;;;19.00;61.50;;;;;;20744567;28;20034;-50
2021/09/05 04:21:11;;;;;;;8.13;6.55;;;19.00;61.40;;;;;;20744471;28;20030;-53
2021/09/05 04:31:11;;;;;;;8.07;6.15;;;19.00;61.40;;;;;;20743933;28;20029;-55
2021/09/05 04:41:12;;;;;;;9.65;6.32;;;19.00;61.20;;;;;;20710582;28;20493;-53
2021/09/05 04:51:12;;;;;;;9.05;6.15;;;19.00;61.00;;;;;;20692789;28;20397;-55
2021/09/05 05:01:13;;;;;;;7.00;5.38;;;19.00;61.10;;;;;;20700592;28;20030;-52
2021/09/05 05:11:16;;;;;;;7.95;5.57;;;19.00;61.30;;;;;;20699057;28;20058;-54
2021/09/05 05:21:16;;;;;;;13.90;6.32;;;19.00;61.00;;;;;;20693375;28;20041;-52
2021/09/05 05:31:17;;;;;;;17.20;6.00;;;19.10;61.30;;;;;;20688729;28;20033;-54
2021/09/05 05:41:19;;;;;;;8.52;6.60;;;19.00;60.80;;;;;;20694404;28;20046;-56
2021/09/05 05:51:20;;;;;;;11.43;5.53;;;19.00;61.50;;;;;;20688547;28;20040;-56
2021/09/05 06:01:22;;;;;;;12.52;6.40;;;19.00;60.90;;;;;;20683922;28;20532;-57
2021/09/05 06:11:23;;;;;;;9.43;5.93;;;19.00;61.20;;;;;;20685812;28;20057;-55
2021/09/05 06:21:24;;;;;;;11.90;6.35;;;19.00;60.80;;;;;;20690770;28;20049;-56
2021/09/05 06:31:24;;;;;;;11.65;4.97;;;19.00;60.90;;;;;;20682656;28;20030;-50
2021/09/05 06:41:25;;;;;;;13.05;6.25;;;18.90;60.30;;;;;;20671595;28;20129;-57
2021/09/05 06:51:25;;;;;;;7.85;5.93;;;18.90;60.50;;;;;;20674431;28;20031;-56
2021/09/05 07:01:26;;;;;;;12.68;6.32;;;18.90;60.40;;;;;;20732314;28;20037;-52
2021/09/05 07:11:26;;;;;;;15.52;8.15;;;19.00;61.60;;;;;;20718309;28;20053;-59
2021/09/05 07:21:27;;;;;;;21.40;8.40;;;19.00;61.20;;;;;;20746325;28;20068;-58
2021/09/05 07:31:28;;;;;;;15.95;8.63;;;19.10;61.20;;;;;;20738112;28;20034;-57
2021/09/05 07:41:28;;;;;;;17.07;9.50;;;19.10;61.90;;;;;;20737131;28;20449;-58
2021/09/05 07:51:29;;;;;;;14.98;8.27;;;19.10;61.50;;;;;;20753617;28;20527;-56
2021/09/05 08:01:29;;;;;;;18.35;8.60;;;19.30;61.70;;;;;;20725024;28;20522;-53
2021/09/05 08:11:30;;;;;;;16.45;8.57;;;19.50;61.50;;;;;;20694261;28;20077;-51
2021/09/05 08:21:31;;;;;;;19.20;8.90;;;19.80;61.20;;;;;;20704584;28;20045;-54
2021/09/05 08:31:32;;;;;;;39.42;14.23;;;20.10;60.80;;;;;;20735389;28;20052;-55
2021/09/05 08:41:33;;;;;;;25.33;12.95;;;20.30;60.70;;;;;;20742478;28;20407;-53
2021/09/05 08:51:33;;;;;;;35.38;14.07;;;20.30;60.90;;;;;;20739541;28;20891;-54
2021/09/05 09:01:34;;;;;;;39.65;13.98;;;20.20;61.00;;;;;;20740357;28;20068;-55
2021/09/05 09:11:46;;;;;;;33.60;12.80;;;20.20;61.00;;;;;;20736422;28;20489;-55
2021/09/05 09:21:46;;;;;;;33.70;12.60;;;20.20;61.10;;;;;;20739594;28;20485;-50
2021/09/05 09:31:56;;;;;;;20.90;11.35;;;20.20;61.10;;;;;;20739032;28;20073;-55
2021/09/05 09:41:56;;;;;;;25.45;12.07;;;20.10;61.10;;;;;;20737505;28;20107;-56
2021/09/05 09:51:58;;;;;;;22.77;12.50;;;20.10;61.10;;;;;;20725054;28;20034;-53
2021/09/05 10:01:58;;;;;;;22.52;12.65;;;20.10;61.20;;;;;;20699167;28;20481;-57
2021/09/05 10:11:59;;;;;;;20.77;10.25;;;20.10;61.30;;;;;;20680932;28;20409;-55
2021/09/05 10:22:01;;;;;;;22.05;10.45;;;20.10;61.40;;;;;;20680005;28;20509;-57
2021/09/05 10:32:03;;;;;;;15.65;10.13;;;20.10;61.50;;;;;;20684432;28;20038;-56
2021/09/05 10:42:23;;;;;;;14.77;9.88;;;20.00;61.60;;;;;;20689431;28;20283;-56
2021/09/05 10:52:46;;;;;;;14.73;9.75;;;20.00;61.60;;;;;;20694884;28;20488;-54
2021/09/05 11:03:05;;;;;;;19.58;9.55;;;20.00;61.70;;;;;;20710976;28;20392;-55
2021/09/05 11:13:06;;;;;;;17.88;9.25;;;20.00;61.70;;;;;;20708035;28;20432;-57
2021/09/05 11:23:06;;;;;;;14.45;9.20;;;19.90;61.70;;;;;;20703946;28;20149;-56
2021/09/05 11:33:09;;;;;;;11.18;8.98;;;19.90;61.80;;;;;;20688445;28;20408;-55
2021/09/05 11:43:09;;;;;;;13.45;9.18;;;19.90;61.80;;;;;;20702592;28;20037;-57
2021/09/05 11:53:19;;;;;;;12.35;8.32;;;20.00;61.90;;;;;;20696915;28;20141;-55
2021/09/05 12:03:25;;;;;;;11.90;9.15;;;19.90;62.00;;;;;;20702865;28;20038;-56
2021/09/05 12:13:25;;;;;;;10.55;7.50;;;19.90;62.00;;;;;;20702439;28;20112;-56
2021/09/05 12:23:32;;;;;;;9.80;7.55;;;19.90;62.10;;;;;;20739103;28;20461;-58
2021/09/05 12:33:35;;;;;;;14.43;8.38;;;19.90;62.20;;;;;;20739650;28;20034;-56
2021/09/05 12:43:56;;;;;;;11.23;8.05;;;19.90;62.30;;;;;;20735093;28;20025;-57
2021/09/05 12:54:00;;;;;;;12.23;9.27;;;19.90;62.30;;;;;;20740917;28;20066;-57
2021/09/05 13:04:02;;;;;;;8.93;7.32;;;19.80;62.40;;;;;;20741170;28;20113;-54
2021/09/05 13:14:03;;;;;;;11.15;8.57;;;19.90;62.50;;;;;;20724752;28;20393;-57
2021/09/05 13:24:04;;;;;;;11.15;7.35;;;19.80;62.50;;;;;;20719842;28;20034;-58
2021/09/05 13:34:04;;;;;;;14.07;8.27;;;19.80;62.50;;;;;;20706674;28;20029;-56
2021/09/05 13:44:05;;;;;;;9.20;7.15;;;19.90;62.60;;;;;;20710112;28;20120;-55
2021/09/05 13:54:06;;;;;;;9.25;7.03;;;19.80;62.60;;;;;;20737167;28;20030;-56
2021/09/05 14:04:07;;;;;;;8.60;6.77;;;19.80;62.70;;;;;;20737998;28;20029;-57
2021/09/05 14:14:07;;;;;;;9.63;6.85;;;19.80;62.70;;;;;;20736836;28;20465;-57
2021/09/05 14:24:08;;;;;;;10.13;7.82;;;19.80;62.70;;;;;;20734032;28;20425;-56
2021/09/05 14:34:28;;;;;;;9.52;7.90;;;19.80;62.70;;;;;;20752382;28;20287;-55
2021/09/05 14:54:55;;;;;;;8.55;6.70;;;19.80;62.90;;;;;;20712692;28;20038;-56
2021/09/05 15:15:15;;;;;;;8.15;6.10;;;19.80;62.90;;;;;;20706550;28;20559;-54
2021/09/05 15:25:19;;;;;;;8.50;6.50;;;19.80;63.00;;;;;;20700561;28;20351;-54
2021/09/05 15:55:58;;;;;;;;;;;19.80;63.10;;;;;;20744770;28;20038;-54
2021/09/05 16:17:01;;;;;;;;;;;19.90;63.50;;;;;;20745060;28;20034;-54
2021/09/05 16:26:42;;;;;;;31.33;14.55;;;19.90;64.00;;;;;;20698314;28;19909;-55
2021/09/05 16:36:57;;;;;;;19.65;14.05;;;19.90;63.60;;;;;;20692004;28;20396;-54
2021/09/05 16:46:58;;;;;;;22.27;14.52;;;19.90;64.10;;;;;;20701781;28;20050;-51
2021/09/05 16:56:59;;;;;;;24.33;13.65;;;19.90;64.00;;;;;;20693221;28;20031;-51
2021/09/05 17:07:00;;;;;;;15.32;11.70;;;19.90;63.90;;;;;;20697570;28;20121;-51
2021/09/05 17:17:00;;;;;;;18.73;13.07;;;19.90;63.90;;;;;;20708218;28;20041;-51
2021/09/05 17:27:02;;;;;;;25.47;13.80;;;19.90;64.20;;;;;;20739829;28;20488;-54
2021/09/05 17:37:04;;;;;;;17.05;12.98;;;19.90;64.70;;;;;;20731329;28;20034;-54
2021/09/05 17:47:04;;;;;;;26.50;13.18;;;19.90;64.80;;;;;;20707551;28;20050;-55
2021/09/05 17:55:20;;;;;;;17.92;11.85;;;19.80;65.60;;;;;;10345321;28;20620;-54
2021/09/05 18:00:21;;;;;;;17.55;12.50;;;19.80;66.10;;;;;;10362293;28;20632;-54
2021/09/05 18:05:22;;;;;;;17.92;11.23;;;19.70;65.70;;;;;;10362610;28;20389;-54
2021/09/05 18:10:23;;;;;;;20.67;11.70;;;19.70;65.60;;;;;;10362046;28;20033;-50
2021/09/05 18:15:25;;;;;;;18.52;11.60;;;19.70;65.60;;;;;;10318167;28;20112;-50
2021/09/05 18:20:26;;;;;;;19.65;11.65;;;19.70;65.80;;;;;;10399531;28;20021;-50
2021/09/05 18:25:26;;;;;;;19.60;11.57;;;19.60;66.10;;;;;;10403220;28;20029;-51
2021/09/05 18:30:27;;;;;;;17.90;12.45;;;19.60;66.00;;;;;;10427037;28;20064;-54
2021/09/05 18:35:27;;;;;;;24.30;12.63;;;19.60;66.10;;;;;;10438003;28;20027;-53
2021/09/05 18:40:29;;;;;;;22.48;11.68;;;19.60;66.50;;;;;;10434896;28;20021;-51
2021/09/05 18:45:29;;;;;;;16.00;10.95;;;19.60;66.20;;;;;;10434377;28;20377;-51
2021/09/05 18:50:30;;;;;;;19.88;11.75;;;19.60;66.10;;;;;;10438354;28;20022;-52
2021/09/05 18:55:30;;;;;;;23.77;12.40;;;19.60;66.20;;;;;;10433018;28;20109;-51
2021/09/05 19:00:31;;;;;;;18.48;12.27;;;19.50;66.20;;;;;;10425985;28;20025;-51
2021/09/05 19:05:31;;;;;;;13.82;10.90;;;19.50;66.00;;;;;;10412091;28;20500;-47
2021/09/05 19:10:32;;;;;;;18.27;11.20;;;19.50;66.00;;;;;;10407579;28;20021;-53
2021/09/05 19:15:33;;;;;;;20.95;12.73;;;19.40;66.00;;;;;;10407529;28;20484;-50
2021/09/05 19:20:33;;;;;;;25.00;12.07;;;19.40;65.90;;;;;;10410221;28;20022;-47
2021/09/05 19:25:34;;;;;;;17.70;12.15;;;19.50;66.10;;;;;;10409561;28;20585;-49
2021/09/05 19:30:35;;;;;;;20.83;13.07;;;19.50;66.00;;;;;;10412723;28;20041;-52
2021/09/05 19:35:37;;;;;;;20.27;11.85;;;19.60;66.10;;;;;;10408745;28;20057;-51
2021/09/05 19:40:37;;;;;;;21.38;12.05;;;19.50;66.20;;;;;;10410824;28;20030;-55
2021/09/05 19:45:38;;;;;;;20.33;10.88;;;19.50;66.30;;;;;;10406497;28;20147;-54
2021/09/05 19:50:38;;;;;;;19.77;11.05;;;19.50;66.10;;;;;;10402462;28;20060;-52
2021/09/05 19:55:39;;;;;;;21.17;11.40;;;19.50;66.20;;;;;;10408543;28;20083;-51
2021/09/05 20:00:40;;;;;;;18.88;11.98;;;19.50;66.30;;;;;;10390249;28;20022;-50
2021/09/05 20:05:40;;;;;;;16.40;11.05;;;19.50;66.20;;;;;;10398753;28;20035;-53
2021/09/05 20:10:41;;;;;;;12.70;10.48;;;19.50;66.30;;;;;;10391532;28;20044;-51
2021/09/05 20:15:42;;;;;;;18.02;11.63;;;19.40;66.20;;;;;;10405670;28;20479;-47
2021/09/05 20:20:42;;;;;;;11.35;10.07;;;19.40;66.20;;;;;;10391736;28;20031;-49
2021/09/05 20:25:43;;;;;;;17.70;10.90;;;19.40;66.10;;;;;;10400049;28;20556;-50
2021/09/05 20:30:44;;;;;;;14.73;11.73;;;19.40;66.00;;;;;;10383827;28;20050;-50
2021/09/05 20:35:44;;;;;;;13.55;11.20;;;19.30;65.90;;;;;;10392310;28;20385;-47
2021/09/05 20:40:45;;;;;;;15.25;10.98;;;19.30;65.80;;;;;;10379119;28;20374;-49
2021/09/05 20:45:45;;;;;;;14.18;11.38;;;19.30;65.70;;;;;;10399543;28;20058;-52
2021/09/05 20:50:46;;;;;;;16.55;10.63;;;19.30;65.80;;;;;;10367333;28;20033;-54
2021/09/05 20:55:48;;;;;;;12.18;9.43;;;19.20;65.40;;;;;;10369850;28;20069;-55
2021/09/05 21:00:48;;;;;;;11.65;10.13;;;19.30;65.60;;;;;;10365897;28;20560;-52
2021/09/05 21:05:49;;;;;;;14.38;10.68;;;19.20;65.30;;;;;;10369280;28;20136;-54
2021/09/05 21:10:49;;;;;;;15.48;11.10;;;19.20;65.30;;;;;;10367024;28;20034;-49
2021/09/05 21:15:50;;;;;;;13.38;11.38;;;19.20;65.20;;;;;;10368756;28;20033;-55
2021/09/05 21:20:50;;;;;;;13.32;11.45;;;19.10;65.20;;;;;;10365346;28;20037;-53
2021/09/05 21:25:51;;;;;;;13.60;10.82;;;19.20;65.00;;;;;;10367625;28;20034;-53
2021/09/05 21:30:51;;;;;;;13.38;10.35;;;19.20;64.90;;;;;;10364975;28;20125;-54
2021/09/05 21:35:52;;;;;;;13.07;10.32;;;19.10;64.90;;;;;;10367914;28;20504;-51
2021/09/05 21:40:52;;;;;;;17.52;12.20;;;19.10;64.70;;;;;;10364878;28;20044;-53
2021/09/05 21:45:53;;;;;;;11.98;10.35;;;19.10;64.80;;;;;;10367710;28;20120;-53
2021/09/05 21:50:54;;;;;;;14.23;11.82;;;19.10;64.50;;;;;;10364043;28;20097;-55
2021/09/05 21:55:55;;;;;;;14.75;10.50;;;19.10;64.50;;;;;;10367636;28;20499;-54
2021/09/05 22:00:55;;;;;;;13.68;11.32;;;19.10;64.50;;;;;;10364822;28;20104;-52
2021/09/05 22:05:56;;;;;;;14.45;9.88;;;19.00;64.40;;;;;;10367366;28;20489;-54
2021/09/05 22:10:56;;;;;;;14.57;10.55;;;19.00;64.40;;;;;;10364446;28;20026;-51
2021/09/05 22:15:57;;;;;;;12.30;10.18;;;19.00;64.30;;;;;;10367605;28;20022;-51
2021/09/05 22:20:58;;;;;;;11.63;9.95;;;19.00;64.40;;;;;;10367668;28;20385;-53
2021/09/05 22:25:58;;;;;;;14.00;10.57;;;19.00;64.20;;;;;;10367128;28;20025;-50
2021/09/05 22:30:59;;;;;;;14.75;10.80;;;18.90;64.00;;;;;;10367168;28;20411;-52
2021/09/05 22:35:59;;;;;;;15.02;9.88;;;18.90;63.90;;;;;;10366891;28;20108;-52
2021/09/05 22:41:00;;;;;;;11.75;10.55;;;18.90;63.90;;;;;;10372809;28;20057;-52
2021/09/05 22:46:00;;;;;;;10.57;9.25;;;19.00;63.80;;;;;;10374400;28;20026;-53
2021/09/05 22:51:01;;;;;;;14.80;11.27;;;18.90;64.00;;;;;;10374621;28;20510;-54
2021/09/05 22:56:02;;;;;;;11.50;9.93;;;19.00;63.80;;;;;;10374189;28;20096;-54
2021/09/05 23:01:02;;;;;;;12.48;10.65;;;19.00;63.60;;;;;;10374276;28;20033;-50
2021/09/05 23:06:03;;;;;;;13.38;10.73;;;18.90;63.50;;;;;;10373876;28;20122;-51
2021/09/05 23:11:06;;;;;;;12.88;10.27;;;18.90;63.40;;;;;;10373829;28;20445;-50
2021/09/05 23:16:06;;;;;;;15.73;10.98;;;18.90;63.40;;;;;;10373564;28;20030;-50
2021/09/05 23:21:07;;;;;;;12.50;10.65;;;18.80;63.30;;;;;;10373738;28;20500;-50
2021/09/05 23:26:08;;;;;;;15.60;10.07;;;18.80;63.20;;;;;;10373309;28;20083;-53
2021/09/05 23:31:08;;;;;;;13.63;10.43;;;18.90;63.20;;;;;;10372910;28;20387;-48
2021/09/05 23:36:09;;;;;;;15.70;10.85;;;18.80;63.20;;;;;;10372621;28;20424;-54
2021/09/05 23:41:10;;;;;;;12.70;9.88;;;18.80;63.10;;;;;;10372516;28;20030;-54
2021/09/05 23:46:10;;;;;;;12.98;10.88;;;18.80;63.10;;;;;;10372199;28;20369;-50
2021/09/05 23:51:12;;;;;;;12.52;9.77;;;18.80;63.00;;;;;;10372307;28;20095;-50
2021/09/05 23:56:12;;;;;;;15.88;10.73;;;18.80;62.90;;;;;;10371867;28;20477;-49
